| time (UTC) | temp C | wind direction | speed KPH | gust KPH | rain 1hr cm | rain 24hr cm | rain mn cm | humidity % | barometer mb |
| 20260906232746 | 18 | 318 | 6.4 | 9.7 | 0.00 | 0.00 | 0.00 | 70 | 1016.7 |
| 20260906232245 | 18 | 323 | 9.7 | 11.3 | 0.00 | 0.00 | 0.00 | 71 | 1016.5 |
| 20260906231745 | 18 | 339 | 8.0 | 9.7 | 0.00 | 0.00 | 0.00 | 73 | 1016.6 |
| 20260906231241 | 17 | 321 | 9.7 | 11.3 | 0.00 | 0.00 | 0.00 | 74 | 1017.0 |
| 20260906230740 | 18 | 309 | 8.0 | 9.7 | 0.00 | 0.00 | 0.00 | 75 | 1016.9 |
| 20260906230235 | 17 | 314 | 12.9 | 14.5 | 0.00 | 0.00 | 0.00 | 76 | 1017.0 |
| 20260906225733 | 17 | 311 | 9.7 | 11.3 | 0.00 | 0.00 | 0.00 | 76 | 1016.9 |
| 20260906225230 | 18 | 298 | 6.4 | 9.7 | 0.00 | 0.00 | 0.00 | 76 | 1016.8 |
| 20260906224725 | 18 | 347 | 4.8 | 4.8 | 0.00 | 0.00 | 0.00 | 73 | 1016.9 |
| 20260906224221 | 18 | 354 | 4.8 | 4.8 | 0.00 | 0.00 | 0.00 | 74 | 1017.0 |
| 20260906223717 | 18 | 330 | 9.7 | 12.9 | 0.00 | 0.00 | 0.00 | 74 | 1017.2 |
| 20260906223213 | 18 | 353 | 6.4 | 9.7 | 0.00 | 0.00 | 0.00 | 74 | 1017.1 |
| 20260906222711 | 18 | 341 | 8.0 | 9.7 | 0.00 | 0.00 | 0.00 | 74 | 1017.3 |
| 20260906222209 | 18 | 338 | 4.8 | 4.8 | 0.00 | 0.00 | 0.00 | 73 | 1017.3 |
| 20260906221708 | 18 | 331 | 4.8 | 4.8 | 0.00 | 0.00 | 0.00 | 73 | 1017.2 |
| 20260906221202 | 18 | 356 | 4.8 | 6.4 | 0.00 | 0.00 | 0.00 | 72 | 1017.1 |
| 20260906220657 | 18 | 335 | 9.7 | 9.7 | 0.00 | 0.00 | 0.00 | 71 | 1017.2 |
| 20260906220153 | 19 | 343 | 4.8 | 4.8 | 0.00 | 0.00 | 0.00 | 70 | 1017.2 |
| 20260906215652 | 19 | 10 | 4.8 | 6.4 | 0.00 | 0.00 | 0.00 | 70 | 1017.1 |
| 20260906215150 | 19 | 350 | 6.4 | 6.4 | 0.00 | 0.00 | 0.00 | 69 | 1017.1 |
| 20260906214644 | 19 | 344 | 3.2 | 3.2 | 0.00 | 0.00 | 0.00 | 70 | 1017.2 |
| 20260906214144 | 18 | 348 | 3.2 | 3.2 | 0.00 | 0.00 | 0.00 | 69 | 1017.2 |
| 20260906213638 | 18 | 353 | 3.2 | 4.8 | 0.00 | 0.00 | 0.00 | 70 | 1017.2 |
| 20260906213138 | 18 | 7 | 3.2 | 4.8 | 0.00 | 0.00 | 0.00 | 71 | 1017.2 |
| 20260906212635 | 18 | 74 | 1.6 | 1.6 | 0.00 | 0.00 | 0.00 | 70 | 1017.4 |
| 20260906212131 | 18 | 13 | 3.2 | 3.2 | 0.00 | 0.00 | 0.00 | 70 | 1017.2 |
| 20260906211631 | 18 | 26 | 6.4 | 6.4 | 0.00 | 0.00 | 0.00 | 70 | 1017.4 |
| 20260906211126 | 18 | 101 | 1.6 | 1.6 | 0.00 | 0.00 | 0.00 | 70 | 1017.2 |
| 20260906210622 | 18 | 26 | 6.4 | 6.4 | 0.00 | 0.00 | 0.00 | 70 | 1017.3 |
| 20260906210116 | 18 | 32 | 4.8 | 6.4 | 0.00 | 0.00 | 0.00 | 69 | 1017.3 |
| 20260906205612 | 18 | 41 | 3.2 | 3.2 | 0.00 | 0.00 | 0.00 | 69 | 1017.3 |
| 20260906205108 | 18 | 41 | 1.6 | 1.6 | 0.00 | 0.00 | 0.00 | 69 | 1017.2 |
| 20260906204607 | 18 | 27 | 6.4 | 6.4 | 0.00 | 0.00 | 0.00 | 70 | 1017.4 |
| 20260906204102 | 18 | 0 | 3.2 | 3.2 | 0.00 | 0.00 | 0.00 | 69 | 1017.6 |
| 20260906203601 | 18 | 93 | 1.6 | 1.6 | 0.00 | 0.00 | 0.00 | 69 | 1017.7 |
| 20260906203057 | 18 | 89 | 1.6 | 3.2 | 0.00 | 0.00 | 0.00 | 70 | 1017.6 |
| 20260906202553 | 18 | 33 | 4.8 | 4.8 | 0.00 | 0.00 | 0.00 | 70 | 1017.4 |
| 20260906202047 | 18 | 15 | 4.8 | 6.4 | 0.00 | 0.00 | 0.00 | 70 | 1017.4 |
| 20260906201542 | 18 | 11 | 3.2 | 4.8 | 0.00 | 0.00 | 0.00 | 69 | 1017.4 |
| 20260906201041 | 17 | 0 | 6.4 | 9.7 | 0.00 | 0.00 | 0.00 | 71 | 1017.7 |
| 20260906200537 | 17 | 23 | 4.8 | 4.8 | 0.00 | 0.00 | 0.00 | 71 | 1017.8 |
| 20260906200033 | 17 | 85 | 3.2 | 4.8 | 0.00 | 0.00 | 0.00 | 71 | 1017.8 |
| 20260906195528 | 17 | 349 | 3.2 | 4.8 | 0.00 | 0.00 | 0.00 | 73 | 1017.9 |
| 20260906195025 | 17 | 2 | 3.2 | 4.8 | 0.00 | 0.00 | 0.00 | 71 | 1017.7 |
| 20260906194520 | 17 | 22 | 4.8 | 6.4 | 0.00 | 0.00 | 0.00 | 71 | 1017.8 |
| 20260906194016 | 17 | 94 | 1.6 | 1.6 | 0.00 | 0.00 | 0.00 | 72 | 1017.9 |
| 20260906193515 | 17 | 89 | 1.6 | 3.2 | 0.00 | 0.00 | 0.00 | 72 | 1017.9 |
| 20260906193011 | 17 | 29 | 3.2 | 3.2 | 0.00 | 0.00 | 0.00 | 70 | 1017.9 |
| 20260906192506 | 17 | 83 | 1.6 | 1.6 | 0.00 | 0.00 | 0.00 | 73 | 1017.9 |
| 20260906192005 | 17 | 74 | 4.8 | 6.4 | 0.00 | 0.00 | 0.00 | 72 | 1017.8 |
| 20260906191500 | 17 | 60 | 4.8 | 6.4 | 0.00 | 0.00 | 0.00 | 72 | 1017.9 |
| 20260906190959 | 17 | 36 | 9.7 | 16.1 | 0.00 | 0.00 | 0.00 | 72 | 1017.9 |
| 20260906190458 | 17 | 51 | 3.2 | 4.8 | 0.00 | 0.00 | 0.00 | 73 | 1018.0 |
| 20260906185954 | 17 | 38 | 4.8 | 4.8 | 0.00 | 0.00 | 0.00 | 74 | 1017.9 |
| 20260906185453 | 17 | 75 | 3.2 | 3.2 | 0.00 | 0.00 | 0.00 | 74 | 1018.0 |
| 20260906184952 | 17 | 2 | 6.4 | 6.4 | 0.00 | 0.00 | 0.00 | 75 | 1017.9 |
| 20260906184447 | 17 | 65 | 6.4 | 9.7 | 0.00 | 0.00 | 0.00 | 75 | 1018.0 |
| 20260906183942 | 17 | 54 | 6.4 | 6.4 | 0.00 | 0.00 | 0.00 | 75 | 1018.0 |
| 20260906183438 | 17 | 13 | 9.7 | 12.9 | 0.00 | 0.00 | 0.00 | 75 | 1018.1 |
| 20260906182934 | 16 | 24 | 8.0 | 9.7 | 0.00 | 0.00 | 0.00 | 76 | 1018.2 |
| 20260906182429 | 16 | 58 | 3.2 | 4.8 | 0.00 | 0.00 | 0.00 | 77 | 1018.2 |
| 20260906181925 | 16 | 12 | 8.0 | 11.3 | 0.00 | 0.00 | 0.00 | 77 | 1018.2 |
| 20260906181420 | 16 | 25 | 9.7 | 16.1 | 0.00 | 0.00 | 0.00 | 78 | 1018.4 |
| 20260906180916 | 16 | 16 | 9.7 | 11.3 | 0.00 | 0.00 | 0.00 | 79 | 1018.5 |
| 20260906180411 | 16 | 12 | 12.9 | 16.1 | 0.00 | 0.00 | 0.00 | 79 | 1018.4 |
| 20260906175909 | 15 | 18 | 8.0 | 9.7 | 0.00 | 0.00 | 0.00 | 84 | 1018.4 |
| 20260906175404 | 15 | 73 | 11.3 | 14.5 | 0.00 | 0.00 | 0.00 | 85 | 1018.2 |
| 20260906174902 | 15 | 36 | 9.7 | 14.5 | 0.00 | 0.00 | 0.00 | 92 | 1018.0 |
| 20260906174402 | 14 | 67 | 8.0 | 9.7 | 0.00 | 0.00 | 0.00 | 96 | 1018.1 |
| 20260906173857 | 14 | 18 | 8.0 | 9.7 | 0.00 | 0.00 | 0.00 | 95 | 1018.2 |
| 20260906173353 | 13 | 22 | 9.7 | 12.9 | 0.00 | 0.00 | 0.00 | 94 | 1018.8 |
| 20260906172851 | 13 | 23 | 4.8 | 6.4 | 0.00 | 0.00 | 0.00 | 93 | 1019.3 |
| 20260906172349 | 13 | 335 | 4.8 | 4.8 | 0.00 | 0.00 | 0.00 | 92 | 1019.9 |
| 20260906171848 | 13 | 315 | 8.0 | 9.7 | 0.00 | 0.00 | 0.00 | 91 | 1019.9 |
| 20260906171343 | 13 | 325 | 6.4 | 9.7 | 0.00 | 0.00 | 0.00 | 91 | 1020.0 |
| 20260906170839 | 13 | 334 | 6.4 | 6.4 | 0.00 | 0.00 | 0.00 | 90 | 1019.7 |
| 20260906170335 | 13 | 338 | 6.4 | 6.4 | 0.00 | 0.00 | 0.00 | 89 | 1019.9 |
| 20260906165832 | 13 | 313 | 6.4 | 9.7 | 0.00 | 0.00 | 0.00 | 89 | 1019.9 |
| 20260906165330 | 13 | 313 | 6.4 | 9.7 | 0.00 | 0.00 | 0.00 | 89 | 1019.9 |
| 20260906164826 | 13 | 312 | 8.0 | 11.3 | 0.00 | 0.00 | 0.00 | 90 | 1019.9 |
| 20260906164325 | 13 | 299 | 6.4 | 6.4 | 0.00 | 0.00 | 0.00 | 90 | 1019.7 |
| 20260906163821 | 13 | 316 | 8.0 | 9.7 | 0.00 | 0.00 | 0.00 | 90 | 1019.7 |
| 20260906163317 | 13 | 303 | 8.0 | 9.7 | 0.00 | 0.00 | 0.00 | 90 | 1020.0 |
| 20260906162814 | 13 | 325 | 6.4 | 6.4 | 0.00 | 0.00 | 0.00 | 90 | 1020.1 |
| 20260906162314 | 13 | 308 | 6.4 | 9.7 | 0.00 | 0.00 | 0.00 | 91 | 1020.0 |
| 20260906161809 | 13 | 323 | 6.4 | 6.4 | 0.00 | 0.00 | 0.00 | 91 | 1019.9 |
| 20260906161308 | 13 | 326 | 6.4 | 6.4 | 0.00 | 0.00 | 0.00 | 91 | 1019.9 |
| 20260906160807 | 12 | 343 | 4.8 | 4.8 | 0.00 | 0.00 | 0.00 | 92 | 1019.9 |
| 20260906160301 | 12 | 329 | 6.4 | 9.7 | 0.00 | 0.00 | 0.00 | 92 | 1019.7 |
| 20260906155758 | 12 | 330 | 8.0 | 11.3 | 0.00 | 0.00 | 0.00 | 93 | 1019.9 |
| 20260906155254 | 12 | 310 | 8.0 | 11.3 | 0.00 | 0.00 | 0.00 | 93 | 1020.1 |
| 20260906154749 | 12 | 300 | 8.0 | 11.3 | 0.00 | 0.00 | 0.00 | 93 | 1020.1 |
| 20260906154244 | 12 | 323 | 6.4 | 9.7 | 0.00 | 0.00 | 0.00 | 93 | 1020.1 |
| 20260906153742 | 12 | 310 | 6.4 | 9.7 | 0.00 | 0.00 | 0.00 | 93 | 1020.3 |
| 20260906153237 | 12 | 328 | 8.0 | 9.7 | 0.00 | 0.00 | 0.00 | 92 | 1020.2 |
| 20260906152733 | 12 | 332 | 8.0 | 9.7 | 0.00 | 0.00 | 0.00 | 92 | 1020.5 |
| 20260906152233 | 12 | 350 | 11.3 | 12.9 | 0.00 | 0.00 | 0.00 | 91 | 1020.5 |
| 20260906151732 | 12 | 346 | 14.5 | 17.7 | 0.00 | 0.00 | 0.00 | 91 | 1020.4 |
| 20260906151228 | 12 | 328 | 14.5 | 16.1 | 0.00 | 0.00 | 0.00 | 90 | 1020.6 |
| 20260906150723 | 12 | 334 | 6.4 | 9.7 | 0.00 | 0.00 | 0.00 | 90 | 1020.7 |
| 20260906150219 | 13 | 337 | 9.7 | 11.3 | 0.00 | 0.00 | 0.00 | 89 | 1020.8 |
| 20260906145717 | 13 | 317 | 11.3 | 12.9 | 0.00 | 0.00 | 0.00 | 89 | 1020.7 |
| 20260906145217 | 13 | 315 | 12.9 | 16.1 | 0.00 | 0.00 | 0.00 | 90 | 1020.5 |
| 20260906144712 | 13 | 325 | 14.5 | 16.1 | 0.00 | 0.00 | 0.00 | 89 | 1020.5 |
| 20260906144207 | 13 | 324 | 20.9 | 25.7 | 0.00 | 0.00 | 0.00 | 89 | 1020.8 |
| 20260906143706 | 13 | 279 | 12.9 | 14.5 | 0.00 | 0.00 | 0.00 | 89 | 1020.9 |
| 20260906143204 | 14 | 287 | 11.3 | 14.5 | 0.00 | 0.00 | 0.00 | 87 | 1020.9 |
| 20260906142657 | 15 | 277 | 9.7 | 11.3 | 0.00 | 0.00 | 0.00 | 89 | 1020.6 |
| 20260906142153 | 15 | 290 | 9.7 | 11.3 | 0.00 | 0.00 | 0.00 | 89 | 1020.4 |
| 20260906141651 | 15 | 285 | 6.4 | 6.4 | 0.00 | 0.00 | 0.00 | 89 | 1020.4 |
| 20260906141146 | 15 | 318 | 1.6 | 1.6 | 0.00 | 0.00 | 0.00 | 89 | 1020.1 |
| 20260906140645 | 15 | 346 | 3.2 | 3.2 | 0.00 | 0.00 | 0.00 | 89 | 1020.1 |
| 20260906140141 | 14 | 342 | 3.2 | 3.2 | 0.00 | 0.00 | 0.00 | 89 | 1020.0 |
| 20260906135637 | 14 | 334 | 1.6 | 3.2 | 0.00 | 0.00 | 0.00 | 89 | 1020.3 |
| 20260906135133 | 15 | 298 | 3.2 | 3.2 | 0.00 | 0.00 | 0.00 | 89 | 1020.2 |
| 20260906134629 | 15 | 268 | 1.6 | 3.2 | 0.00 | 0.00 | 0.00 | 89 | 1020.4 |
| 20260906134124 | 14 | 77 | 1.6 | 1.6 | 0.00 | 0.00 | 0.00 | 88 | 1020.1 |
| 20260906133620 | 15 | 92 | 4.8 | 6.4 | 0.00 | 0.00 | 0.00 | 88 | 1020.0 |
| 20260906133114 | 14 | 104 | 1.6 | 1.6 | 0.00 | 0.00 | 0.00 | 88 | 1019.9 |
| 20260906132609 | 14 | 15 | 6.4 | 6.4 | 0.00 | 0.00 | 0.00 | 89 | 1020.0 |
| 20260906132105 | 14 | 359 | 4.8 | 6.4 | 0.00 | 0.00 | 0.00 | 89 | 1020.0 |
| 20260906131600 | 13 | 324 | 4.8 | 4.8 | 0.00 | 0.00 | 0.00 | 90 | 1019.9 |
| 20260906131056 | 13 | 317 | 6.4 | 9.7 | 0.00 | 0.00 | 0.00 | 90 | 1020.1 |
| 20260906130550 | 14 | 312 | 4.8 | 4.8 | 0.00 | 0.00 | 0.00 | 90 | 1020.1 |
| 20260906130045 | 13 | 13 | 3.2 | 4.8 | 0.00 | 0.00 | 0.00 | 90 | 1020.2 |
| 20260906125542 | 13 | 29 | 3.2 | 3.2 | 0.00 | 0.00 | 0.00 | 90 | 1020.0 |
| 20260906125037 | 13 | 24 | 4.8 | 6.4 | 0.00 | 0.00 | 0.00 | 90 | 1020.2 |
| 20260906124532 | 13 | 32 | 3.2 | 3.2 | 0.00 | 0.00 | 0.00 | 90 | 1020.2 |
| 20260906124027 | 13 | 34 | 6.4 | 6.4 | 0.00 | 0.00 | 0.00 | 90 | 1020.4 |
| 20260906123526 | 13 | 25 | 4.8 | 6.4 | 0.00 | 0.00 | 0.00 | 90 | 1020.4 |
| 20260906123021 | 13 | 1 | 6.4 | 9.7 | 0.00 | 0.00 | 0.00 | 90 | 1020.3 |
| 20260906122515 | 13 | 359 | 8.0 | 9.7 | 0.00 | 0.00 | 0.00 | 90 | 1020.2 |
| 20260906122012 | 13 | 8 | 4.8 | 6.4 | 0.00 | 0.00 | 0.00 | 90 | 1020.1 |
| 20260906121508 | 13 | 354 | 9.7 | 12.9 | 0.00 | 0.00 | 0.00 | 90 | 1020.0 |
| 20260906121004 | 13 | 6 | 9.7 | 11.3 | 0.00 | 0.00 | 0.00 | 90 | 1019.9 |
| 20260906120458 | 13 | 352 | 11.3 | 12.9 | 0.00 | 0.00 | 0.00 | 90 | 1019.6 |
| 20260906115955 | 13 | 352 | 8.0 | 11.3 | 0.00 | 0.00 | 0.00 | 90 | 1020.0 |
| 20260906115450 | 13 | 3 | 11.3 | 12.9 | 0.00 | 0.00 | 0.00 | 89 | 1020.0 |
| 20260906114949 | 13 | 4 | 14.5 | 17.7 | 0.00 | 0.00 | 0.00 | 89 | 1020.1 |
| 20260906114444 | 13 | 357 | 11.3 | 12.9 | 0.00 | 0.00 | 0.00 | 89 | 1020.0 |
| 20260906113940 | 13 | 1 | 9.7 | 12.9 | 0.00 | 0.00 | 0.00 | 89 | 1020.2 |
| 20260906113439 | 13 | 0 | 6.4 | 9.7 | 0.00 | 0.00 | 0.00 | 89 | 1020.2 |
| 20260906112934 | 13 | 354 | 6.4 | 6.4 | 0.00 | 0.00 | 0.00 | 89 | 1020.4 |
| 20260906112430 | 13 | 357 | 6.4 | 6.4 | 0.00 | 0.00 | 0.00 | 89 | 1020.2 |
| 20260906111925 | 13 | 0 | 6.4 | 9.7 | 0.00 | 0.00 | 0.00 | 88 | 1020.1 |
| 20260906111425 | 13 | 343 | 6.4 | 6.4 | 0.00 | 0.00 | 0.00 | 88 | 1020.1 |
| 20260906110920 | 13 | 347 | 9.7 | 12.9 | 0.00 | 0.00 | 0.00 | 88 | 1020.1 |
| 20260906110415 | 13 | 9 | 8.0 | 9.7 | 0.00 | 0.00 | 0.00 | 88 | 1020.1 |
| 20260906105914 | 13 | 356 | 11.3 | 11.3 | 0.00 | 0.00 | 0.00 | 88 | 1020.1 |
| 20260906105410 | 13 | 21 | 12.9 | 16.1 | 0.00 | 0.00 | 0.00 | 88 | 1020.1 |
| 20260906104906 | 13 | 356 | 9.7 | 11.3 | 0.00 | 0.00 | 0.00 | 88 | 1020.3 |
| 20260906104404 | 13 | 356 | 11.3 | 12.9 | 0.00 | 0.00 | 0.00 | 88 | 1020.2 |
| 20260906103903 | 13 | 17 | 14.5 | 16.1 | 0.00 | 0.00 | 0.00 | 88 | 1020.3 |
| 20260906103401 | 13 | 8 | 12.9 | 14.5 | 0.00 | 0.00 | 0.00 | 88 | 1020.4 |
| 20260906102857 | 13 | 8 | 9.7 | 12.9 | 0.00 | 0.00 | 0.00 | 88 | 1020.3 |
| 20260906102357 | 13 | 0 | 16.1 | 17.7 | 0.00 | 0.00 | 0.00 | 87 | 1020.1 |
| 20260906101851 | 13 | 11 | 8.0 | 9.7 | 0.00 | 0.00 | 0.00 | 87 | 1020.3 |
| 20260906101347 | 14 | 355 | 12.9 | 14.5 | 0.00 | 0.00 | 0.00 | 87 | 1020.2 |
| 20260906100842 | 14 | 3 | 11.3 | 12.9 | 0.00 | 0.00 | 0.00 | 87 | 1020.1 |
| 20260906100341 | 14 | 343 | 12.9 | 16.1 | 0.00 | 0.00 | 0.00 | 86 | 1020.3 |
| 20260906095836 | 14 | 356 | 14.5 | 16.1 | 0.00 | 0.00 | 0.00 | 86 | 1020.3 |
| 20260906095327 | 14 | 358 | 12.9 | 14.5 | 0.00 | 0.00 | 0.00 | 86 | 1020.4 |
| 20260906094826 | 14 | 350 | 14.5 | 16.1 | 0.00 | 0.00 | 0.00 | 86 | 1020.1 |
| 20260906094321 | 14 | 355 | 12.9 | 14.5 | 0.00 | 0.00 | 0.00 | 86 | 1020.3 |
| 20260906093818 | 14 | 6 | 12.9 | 14.5 | 0.00 | 0.00 | 0.00 | 86 | 1020.0 |
| 20260906093313 | 14 | 12 | 16.1 | 20.9 | 0.00 | 0.00 | 0.00 | 86 | 1020.0 |
| 20260906092807 | 15 | 358 | 16.1 | 22.5 | 0.00 | 0.00 | 0.00 | 86 | 1020.2 |
| 20260906092301 | 15 | 353 | 9.7 | 14.5 | 0.00 | 0.00 | 0.00 | 85 | 1020.1 |
| 20260906091757 | 15 | 11 | 12.9 | 14.5 | 0.00 | 0.00 | 0.00 | 85 | 1020.2 |
| 20260906091253 | 14 | 353 | 9.7 | 12.9 | 0.00 | 0.00 | 0.00 | 85 | 1020.3 |
| 20260906090749 | 14 | 354 | 11.3 | 12.9 | 0.00 | 0.00 | 0.00 | 86 | 1020.4 |
| 20260906090248 | 14 | 357 | 12.9 | 16.1 | 0.00 | 0.00 | 0.00 | 86 | 1020.5 |
| 20260906085748 | 14 | 352 | 9.7 | 12.9 | 0.00 | 0.00 | 0.00 | 87 | 1020.6 |
| 20260906085247 | 14 | 357 | 8.0 | 9.7 | 0.00 | 0.00 | 0.00 | 87 | 1020.6 |
| 20260906084742 | 14 | 339 | 6.4 | 6.4 | 0.00 | 0.00 | 0.00 | 87 | 1020.8 |
| 20260906084242 | 14 | 331 | 9.7 | 12.9 | 0.00 | 0.00 | 0.00 | 87 | 1020.9 |
| 20260906083737 | 14 | 330 | 8.0 | 9.7 | 0.00 | 0.00 | 0.00 | 87 | 1020.9 |
| 20260906083232 | 14 | 333 | 6.4 | 9.7 | 0.00 | 0.00 | 0.00 | 87 | 1021.2 |
| 20260906082727 | 14 | 331 | 8.0 | 9.7 | 0.00 | 0.00 | 0.00 | 87 | 1021.1 |
| 20260906082222 | 14 | 343 | 6.4 | 6.4 | 0.00 | 0.00 | 0.00 | 87 | 1021.1 |
| 20260906081719 | 14 | 340 | 8.0 | 9.7 | 0.00 | 0.00 | 0.00 | 87 | 1021.2 |
| 20260906081213 | 14 | 355 | 6.4 | 6.4 | 0.00 | 0.00 | 0.00 | 87 | 1021.3 |
| 20260906080710 | 14 | 6 | 6.4 | 6.4 | 0.00 | 0.00 | 0.00 | 87 | 1021.1 |
| 20260906080206 | 14 | 357 | 6.4 | 6.4 | 0.00 | 0.00 | 0.00 | 87 | 1021.2 |
| 20260906075706 | 13 | 357 | 6.4 | 6.4 | 0.00 | 0.00 | 0.00 | 88 | 1021.1 |
| 20260906075200 | 13 | 336 | 4.8 | 4.8 | 0.00 | 0.00 | 0.00 | 89 | 1021.4 |
| 20260906074655 | 13 | 2 | 1.6 | 3.2 | 0.00 | 0.00 | 0.00 | 90 | 1021.2 |
| 20260906074154 | 12 | 309 | 4.8 | 4.8 | 0.00 | 0.00 | 0.00 | 90 | 1021.5 |
| 20260906073650 | 12 | 312 | 4.8 | 6.4 | 0.00 | 0.00 | 0.00 | 91 | 1021.3 |
| 20260906073145 | 12 | 280 | 4.8 | 4.8 | 0.00 | 0.00 | 0.00 | 91 | 1021.2 |
| 20260906072640 | 13 | 294 | 3.2 | 3.2 | 0.00 | 0.00 | 0.00 | 90 | 1021.4 |
| 20260906072136 | 13 | 315 | 3.2 | 3.2 | 0.00 | 0.00 | 0.00 | 89 | 1021.4 |
| 20260906071632 | 13 | 317 | 3.2 | 3.2 | 0.00 | 0.00 | 0.00 | 89 | 1021.2 |
| 20260906071126 | 13 | 349 | 4.8 | 6.4 | 0.00 | 0.00 | 0.00 | 88 | 1021.5 |
| 20260906070623 | 13 | 0 | 6.4 | 6.4 | 0.00 | 0.00 | 0.00 | 87 | 1021.3 |
| 20260906070119 | 13 | 3 | 11.3 | 12.9 | 0.00 | 0.00 | 0.00 | 87 | 1021.1 |
| 20260906065618 | 13 | 17 | 11.3 | 16.1 | 0.00 | 0.00 | 0.00 | 87 | 1021.3 |
| 20260906065113 | 13 | 349 | 9.7 | 12.9 | 0.00 | 0.00 | 0.00 | 86 | 1021.3 |
| 20260906064609 | 14 | 342 | 12.9 | 12.9 | 0.00 | 0.00 | 0.00 | 85 | 1021.4 |
| 20260906064104 | 13 | 357 | 11.3 | 14.5 | 0.00 | 0.00 | 0.00 | 86 | 1021.6 |
| 20260906063559 | 13 | 344 | 4.8 | 6.4 | 0.00 | 0.00 | 0.00 | 87 | 1021.7 |
| 20260906063055 | 13 | 349 | 6.4 | 6.4 | 0.00 | 0.00 | 0.00 | 88 | 1021.9 |
| 20260906062551 | 13 | 315 | 9.7 | 11.3 | 0.00 | 0.00 | 0.00 | 88 | 1022.3 |
| 20260906062049 | 13 | 313 | 9.7 | 12.9 | 0.00 | 0.00 | 0.00 | 88 | 1022.0 |
| 20260906061546 | 13 | 329 | 6.4 | 6.4 | 0.00 | 0.00 | 0.00 | 87 | 1022.1 |
| 20260906061045 | 13 | 337 | 6.4 | 9.7 | 0.00 | 0.00 | 0.00 | 87 | 1021.9 |
| 20260906060542 | 13 | 346 | 8.0 | 11.3 | 0.00 | 0.00 | 0.00 | 87 | 1021.8 |
| 20260906060039 | 13 | 350 | 8.0 | 9.7 | 0.00 | 0.00 | 0.00 | 87 | 1021.8 |
| 20260906055535 | 13 | 335 | 9.7 | 11.3 | 0.00 | 0.15 | 0.15 | 87 | 1021.7 |
| 20260906055030 | 13 | 331 | 6.4 | 6.4 | 0.00 | 0.15 | 0.15 | 87 | 1021.8 |
| 20260906054530 | 13 | 333 | 9.7 | 11.3 | 0.00 | 0.15 | 0.15 | 87 | 1021.8 |
| 20260906054025 | 13 | 326 | 9.7 | 11.3 | 0.00 | 0.15 | 0.15 | 87 | 1021.8 |
| 20260906053521 | 13 | 335 | 8.0 | 9.7 | 0.00 | 0.15 | 0.15 | 86 | 1021.8 |
| 20260906053017 | 13 | 350 | 11.3 | 14.5 | 0.00 | 0.15 | 0.15 | 86 | 1021.5 |
| 20260906052512 | 13 | 359 | 12.9 | 14.5 | 0.00 | 0.15 | 0.15 | 86 | 1021.5 |
| 20260906052009 | 13 | 1 | 9.7 | 12.9 | 0.00 | 0.15 | 0.15 | 87 | 1021.3 |
| 20260906051504 | 13 | 11 | 9.7 | 12.9 | 0.00 | 0.15 | 0.15 | 87 | 1021.2 |
| 20260906051000 | 13 | 0 | 9.7 | 12.9 | 0.00 | 0.15 | 0.15 | 86 | 1021.2 |
| 20260906050500 | 13 | 6 | 16.1 | 17.7 | 0.00 | 0.15 | 0.15 | 86 | 1021.3 |
| 20260906045959 | 13 | 354 | 9.7 | 11.3 | 0.00 | 0.15 | 0.15 | 86 | 1021.2 |
| 20260906045458 | 13 | 0 | 14.5 | 16.1 | 0.00 | 0.15 | 0.15 | 86 | 1021.1 |
| 20260906044954 | 13 | 4 | 9.7 | 12.9 | 0.30 | 0.15 | 0.15 | 87 | 1020.9 |
| 20260906044449 | 13 | 8 | 12.9 | 14.5 | 0.30 | 0.15 | 0.15 | 87 | 1021.1 |
| 20260906043945 | 14 | 348 | 14.5 | 16.1 | 0.00 | 0.10 | 0.10 | 84 | 1021.1 |
| 20260906043440 | 14 | 354 | 12.9 | 14.5 | 0.00 | 0.10 | 0.10 | 83 | 1021.3 |
| 20260906042936 | 14 | 357 | 8.0 | 11.3 | 0.00 | 0.10 | 0.10 | 82 | 1021.9 |
| 20260906042435 | 14 | 340 | 8.0 | 11.3 | 0.00 | 0.10 | 0.10 | 82 | 1021.5 |
| 20260906041930 | 14 | 10 | 14.5 | 16.1 | 0.00 | 0.10 | 0.10 | 82 | 1020.7 |
| 20260906041427 | 14 | 357 | 16.1 | 17.7 | 0.00 | 0.10 | 0.10 | 82 | 1020.6 |
| 20260906040926 | 14 | 351 | 16.1 | 22.5 | 0.00 | 0.10 | 0.10 | 82 | 1020.5 |
| 20260906040421 | 14 | 359 | 16.1 | 20.9 | 0.00 | 0.10 | 0.10 | 82 | 1020.4 |
| 20260906035917 | 14 | 355 | 14.5 | 16.1 | 0.00 | 0.10 | 0.10 | 82 | 1020.2 |
| 20260906035412 | 14 | 350 | 14.5 | 20.9 | 0.00 | 0.10 | 0.10 | 82 | 1020.2 |
| 20260906034908 | 14 | 3 | 11.3 | 16.1 | 0.00 | 0.10 | 0.10 | 81 | 1020.5 |
| 20260906034408 | 14 | 347 | 11.3 | 11.3 | 0.00 | 0.10 | 0.10 | 81 | 1020.6 |
| 20260906033903 | 14 | 1 | 12.9 | 14.5 | 0.00 | 0.10 | 0.10 | 81 | 1020.6 |
| 20260906033403 | 14 | 343 | 12.9 | 14.5 | 0.00 | 0.10 | 0.10 | 80 | 1020.5 |
| 20260906032859 | 14 | 8 | 12.9 | 14.5 | 0.00 | 0.10 | 0.10 | 81 | 1020.8 |
| 20260906032355 | 14 | 292 | 9.7 | 14.5 | 0.00 | 0.10 | 0.10 | 81 | 1020.8 |
| 20260906031855 | 15 | 4 | 8.0 | 9.7 | 0.18 | 0.10 | 0.10 | 80 | 1020.8 |
| 20260906031350 | 15 | 347 | 8.0 | 9.7 | 0.18 | 0.10 | 0.10 | 77 | 1020.9 |
| 20260906030845 | 16 | 354 | 17.7 | 20.9 | 0.00 | 0.08 | 0.08 | 66 | 1020.7 |
| 20260906030340 | 16 | 357 | 11.3 | 12.9 | 0.00 | 0.08 | 0.08 | 65 | 1021.7 |
| 20260906025835 | 16 | 342 | 12.9 | 14.5 | 0.00 | 0.08 | 0.08 | 65 | 1021.1 |
| 20260906025328 | 16 | 345 | 19.3 | 24.1 | 0.00 | 0.08 | 0.08 | 65 | 1020.1 |
| 20260906024827 | 16 | 0 | 17.7 | 24.1 | 0.00 | 0.08 | 0.08 | 66 | 1019.6 |
| 20260906024321 | 16 | 8 | 16.1 | 22.5 | 0.00 | 0.08 | 0.08 | 66 | 1019.2 |
| 20260906023817 | 16 | 20 | 11.3 | 14.5 | 0.00 | 0.08 | 0.08 | 65 | 1019.2 |
| 20260906023313 | 16 | 21 | 16.1 | 20.9 | 0.00 | 0.08 | 0.08 | 65 | 1019.2 |
| 20260906022808 | 16 | 12 | 14.5 | 16.1 | 0.00 | 0.08 | 0.08 | 64 | 1019.3 |
| 20260906022306 | 16 | 41 | 25.7 | 29.0 | 0.00 | 0.08 | 0.08 | 64 | 1019.2 |
| 20260906021758 | 17 | 18 | 14.5 | 17.7 | 0.00 | 0.08 | 0.08 | 64 | 1019.1 |
| 20260906021252 | 17 | 6 | 16.1 | 22.5 | 0.00 | 0.08 | 0.08 | 63 | 1019.0 |
| 20260906020746 | 17 | 2 | 12.9 | 16.1 | 0.00 | 0.08 | 0.08 | 63 | 1019.1 |
| 20260906020241 | 17 | 28 | 17.7 | 20.9 | 0.00 | 0.08 | 0.08 | 62 | 1019.2 |
| 20260906015736 | 17 | 13 | 8.0 | 9.7 | 0.00 | 0.08 | 0.08 | 61 | 1019.2 |
| 20260906015234 | 17 | 10 | 9.7 | 11.3 | 0.00 | 0.08 | 0.08 | 60 | 1019.0 |
| 20260906014728 | 18 | 8 | 16.1 | 20.9 | 0.00 | 0.08 | 0.08 | 59 | 1019.1 |
| 20260906014224 | 18 | 355 | 12.9 | 16.1 | 0.00 | 0.08 | 0.08 | 58 | 1019.0 |
| 20260906013720 | 18 | 9 | 6.4 | 9.7 | 0.00 | 0.08 | 0.08 | 57 | 1018.9 |
| 20260906013220 | 18 | 18 | 9.7 | 12.9 | 0.00 | 0.08 | 0.08 | 57 | 1019.1 |
| 20260906012715 | 18 | 13 | 8.0 | 11.3 | 0.00 | 0.08 | 0.08 | 56 | 1018.9 |
| 20260906012210 | 18 | 8 | 9.7 | 12.9 | 0.00 | 0.08 | 0.08 | 56 | 1019.1 |
| 20260906011705 | 19 | 27 | 11.3 | 14.5 | 0.00 | 0.08 | 0.08 | 55 | 1019.0 |
| 20260906011159 | 19 | 26 | 11.3 | 12.9 | 0.00 | 0.08 | 0.08 | 54 | 1019.0 |
| 20260906010649 | 19 | 354 | 12.9 | 14.5 | 0.00 | 0.08 | 0.08 | 54 | 1019.1 |
| 20260906010146 | 20 | 12 | 8.0 | 9.7 | 0.00 | 0.08 | 0.08 | 54 | 1019.0 |
| 20260906005645 | 20 | 22 | 11.3 | 14.5 | 0.00 | 0.08 | 0.08 | 52 | 1019.1 |
| 20260906005144 | 20 | 6 | 9.7 | 11.3 | 0.00 | 0.08 | 0.08 | 51 | 1019.2 |
| 20260906004644 | 20 | 21 | 11.3 | 12.9 | 0.00 | 0.08 | 0.08 | 51 | 1019.0 |
| 20260906004139 | 20 | 27 | 11.3 | 17.7 | 0.00 | 0.08 | 0.08 | 50 | 1019.0 |
| 20260906003634 | 21 | 23 | 8.0 | 12.9 | 0.00 | 0.08 | 0.08 | 50 | 1019.0 |
| 20260906003130 | 21 | 10 | 9.7 | 11.3 | 0.00 | 0.08 | 0.08 | 47 | 1019.1 |
| 20260906002625 | 22 | 13 | 12.9 | 16.1 | 0.00 | 0.08 | 0.08 | 46 | 1019.1 |
| 20260906002119 | 22 | 23 | 9.7 | 12.9 | 0.00 | 0.08 | 0.08 | 43 | 1019.1 |
| 20260906001615 | 21 | 63 | 4.8 | 4.8 | 0.00 | 0.08 | 0.08 | 44 | 1019.1 |
| 20260906001114 | 22 | 10 | 8.0 | 11.3 | 0.00 | 0.08 | 0.08 | 44 | 1019.2 |
| 20260906000611 | 22 | 25 | 9.7 | 11.3 | 0.00 | 0.08 | 0.08 | 43 | 1019.3 |
| 20260906000106 | 22 | 14 | 6.4 | 9.7 | 0.00 | 0.08 | 0.08 | 43 | 1019.2 |
| 20260905235604 | 22 | 44 | 12.9 | 14.5 | 0.00 | 0.08 | 0.08 | 43 | 1019.1 |
| 20260905235100 | 22 | 352 | 8.0 | 9.7 | 0.00 | 0.08 | 0.08 | 43 | 1019.3 |
| 20260905234555 | 22 | 21 | 8.0 | 11.3 | 0.00 | 0.08 | 0.08 | 43 | 1019.2 |
| 20260905234050 | 22 | 1 | 9.7 | 11.3 | 0.00 | 0.08 | 0.08 | 43 | 1019.2 |
| 20260905233544 | 22 | 13 | 8.0 | 11.3 | 0.00 | 0.08 | 0.08 | 43 | 1019.1 |
| 20260905233045 | 22 | 356 | 8.0 | 9.7 | 0.00 | 0.08 | 0.08 | 42 | 1019.4 |